createdAt,value
2022-10-13T00:00:47.505Z,18.67
2022-10-13T00:03:15.332Z,18.77
2022-10-13T00:05:44.434Z,20.27
2022-10-13T00:08:14.187Z,20.70
2022-10-13T00:10:42.042Z,19.25
2022-10-13T00:13:09.290Z,18.15
2022-10-13T00:15:38.724Z,20.38
2022-10-13T00:18:06.738Z,18.85
2022-10-13T00:20:33.818Z,19.15
2022-10-13T00:23:00.594Z,20.38
2022-10-13T00:25:29.253Z,19.80
2022-10-13T00:27:55.962Z,16.90
2022-10-13T00:30:22.678Z,16.73
2022-10-13T00:32:49.975Z,18.30
2022-10-13T00:35:16.933Z,21.92
2022-10-13T00:37:43.637Z,18.33
2022-10-13T00:40:12.050Z,20.42
2022-10-13T00:42:42.230Z,15.93
2022-10-13T00:45:21.249Z,18.42
2022-10-13T00:47:51.474Z,19.55
2022-10-13T00:50:23.062Z,20.73
2022-10-13T00:52:52.650Z,20.98
2022-10-13T00:57:51.382Z,14.53
2022-10-13T01:00:18.911Z,16.38
2022-10-13T01:02:45.609Z,20.83
2022-10-13T01:05:12.320Z,16.90
2022-10-13T01:07:39.629Z,21.08
2022-10-13T01:10:07.062Z,22.70
2022-10-13T01:12:43.360Z,15.65
2022-10-13T01:15:19.143Z,22.52
2022-10-13T01:17:56.189Z,18.15
2022-10-13T01:20:42.548Z,19.20
2022-10-13T01:23:30.558Z,18.67
2022-10-13T01:26:17.466Z,15.73
2022-10-13T01:29:17.539Z,19.67
2022-10-13T01:31:50.679Z,17.33
2022-10-13T01:34:23.716Z,19.33
2022-10-13T01:36:57.708Z,21.23
2022-10-13T01:39:31.331Z,18.40
2022-10-13T01:42:06.465Z,19.50
2022-10-13T01:44:37.637Z,15.68
2022-10-13T01:47:08.576Z,18.23
2022-10-13T01:49:36.684Z,19.55
2022-10-13T01:52:08.611Z,23.77
2022-10-13T01:54:35.960Z,19.52
2022-10-13T01:57:02.821Z,21.38
2022-10-13T01:59:33.214Z,18.20
2022-10-13T02:02:08.674Z,21.00
2022-10-13T02:04:50.306Z,22.05
2022-10-13T02:07:22.989Z,19.95
2022-10-13T02:09:57.463Z,21.92
2022-10-13T02:12:29.852Z,17.25
2022-10-13T02:14:59.339Z,16.55
2022-10-13T02:17:27.761Z,19.88
2022-10-13T02:19:57.038Z,20.90
2022-10-13T02:22:28.911Z,19.35
2022-10-13T02:24:56.321Z,18.65
2022-10-13T02:27:23.483Z,17.90
2022-10-13T02:29:52.050Z,15.82
2022-10-13T02:32:20.409Z,17.90
2022-10-13T02:34:47.515Z,18.97
2022-10-13T02:37:15.589Z,20.50
2022-10-13T02:39:42.946Z,17.63
2022-10-13T02:42:09.772Z,20.30
2022-10-13T02:44:36.642Z,18.55
2022-10-13T02:47:03.962Z,17.45
2022-10-13T02:49:30.650Z,21.65
2022-10-13T02:51:57.469Z,18.17
2022-10-13T02:54:26.170Z,16.90
2022-10-13T02:56:52.881Z,20.03
2022-10-13T02:59:19.592Z,20.35
2022-10-13T03:01:46.933Z,17.83
2022-10-13T03:04:13.635Z,18.20
2022-10-13T03:06:40.344Z,21.45
2022-10-13T03:09:07.708Z,16.42
2022-10-13T03:11:35.775Z,18.15
2022-10-13T03:14:02.453Z,19.63
2022-10-13T03:16:29.787Z,20.55
2022-10-13T03:18:56.480Z,16.33
2022-10-13T03:21:23.180Z,23.70
2022-10-13T03:23:50.541Z,21.40
2022-10-13T03:26:17.396Z,19.13
2022-10-13T03:28:48.775Z,16.63
2022-10-13T03:31:16.960Z,16.73
2022-10-13T03:33:44.030Z,19.05
2022-10-13T03:36:12.114Z,19.33
2022-10-13T03:38:40.007Z,19.80
2022-10-13T03:41:07.667Z,20.23
2022-10-13T03:43:35.059Z,17.80
2022-10-13T03:46:05.529Z,14.80
2022-10-13T03:48:32.998Z,20.27
2022-10-13T03:50:59.773Z,19.60
2022-10-13T03:53:27.101Z,18.17
2022-10-13T03:55:55.911Z,17.00
2022-10-13T03:58:24.209Z,16.80
2022-10-13T04:00:51.958Z,18.70
2022-10-13T04:03:20.159Z,18.55
2022-10-13T04:05:47.495Z,17.15
2022-10-13T04:08:15.122Z,19.98
2022-10-13T04:10:41.869Z,20.90
2022-10-13T04:13:08.709Z,20.98
2022-10-13T04:15:37.224Z,19.42
2022-10-13T04:18:04.118Z,16.20
2022-10-13T04:20:35.151Z,17.08
2022-10-13T04:23:02.483Z,14.48
2022-10-13T04:25:29.214Z,22.90
2022-10-13T04:27:56.526Z,15.95
2022-10-13T04:30:23.206Z,17.33
2022-10-13T04:32:49.897Z,16.30
2022-10-13T04:35:17.363Z,22.05
2022-10-13T04:37:45.415Z,18.15
2022-10-13T04:40:12.481Z,19.40
2022-10-13T04:42:39.773Z,15.20
2022-10-13T04:45:08.021Z,19.58
2022-10-13T04:47:37.140Z,15.63
2022-10-13T04:50:05.412Z,16.70
2022-10-13T04:52:33.378Z,15.77
2022-10-13T04:55:01.858Z,15.65
2022-10-13T04:57:29.189Z,18.20
2022-10-13T04:59:55.879Z,14.60
2022-10-13T05:02:22.789Z,19.27
2022-10-13T05:04:50.150Z,15.95
2022-10-13T05:07:18.452Z,13.43
2022-10-13T05:09:45.516Z,22.85
2022-10-13T05:12:15.026Z,19.92
2022-10-13T05:14:41.747Z,16.75
2022-10-13T05:17:08.452Z,15.95
2022-10-13T05:19:35.768Z,13.52
2022-10-13T05:22:02.556Z,16.83
2022-10-13T05:24:29.482Z,18.30
2022-10-13T05:26:56.823Z,18.58
2022-10-13T05:29:24.960Z,15.05
2022-10-13T05:31:51.679Z,14.20
2022-10-13T05:34:18.999Z,13.60
2022-10-13T05:36:45.729Z,14.88
2022-10-13T05:39:12.452Z,18.83
2022-10-13T05:41:39.766Z,19.90
2022-10-13T05:44:08.536Z,16.08
2022-10-13T05:46:36.759Z,17.13
2022-10-13T05:49:04.585Z,17.58
2022-10-13T05:51:35.180Z,16.95
2022-10-13T05:54:05.875Z,18.77
2022-10-13T05:56:37.604Z,15.10
2022-10-13T05:59:08.041Z,14.07
2022-10-13T06:01:39.677Z,20.50
2022-10-13T06:04:09.406Z,17.40
2022-10-13T06:06:36.762Z,18.30
2022-10-13T06:09:03.603Z,17.70
2022-10-13T06:11:30.293Z,17.20
2022-10-13T06:13:57.621Z,20.75
2022-10-13T06:16:24.316Z,18.35
2022-10-13T06:18:52.390Z,15.30
2022-10-13T06:21:19.743Z,20.60
2022-10-13T06:23:46.456Z,20.50
2022-10-13T06:26:13.206Z,13.55
2022-10-13T06:28:40.557Z,16.90
2022-10-13T06:31:07.302Z,19.42
2022-10-13T06:33:34.571Z,18.83
2022-10-13T06:36:05.182Z,17.60
2022-10-13T06:38:32.718Z,16.65
2022-10-13T06:41:00.330Z,20.80
2022-10-13T06:43:35.702Z,18.13
2022-10-13T06:46:06.768Z,17.88
2022-10-13T06:48:34.131Z,20.90
2022-10-13T06:51:02.739Z,18.70
2022-10-13T06:53:29.483Z,17.77
2022-10-13T06:55:57.726Z,19.52
2022-10-13T06:58:24.517Z,15.18
2022-10-13T07:00:51.465Z,21.13
2022-10-13T07:03:18.831Z,20.55
2022-10-13T07:05:45.627Z,23.63
2022-10-13T07:08:13.900Z,17.83
2022-10-13T07:10:41.345Z,22.30
2022-10-13T07:13:08.372Z,19.30
2022-10-13T07:15:37.439Z,24.60
2022-10-13T07:18:04.898Z,21.45
2022-10-13T07:20:31.902Z,22.02
2022-10-13T07:22:58.606Z,19.70
2022-10-13T07:25:27.468Z,26.33
2022-10-13T07:27:54.269Z,25.38
2022-10-13T07:30:21.193Z,17.25
2022-10-13T07:32:48.727Z,20.10
2022-10-13T07:35:15.506Z,20.63
2022-10-13T07:37:42.208Z,21.80
2022-10-13T07:40:10.715Z,21.48
2022-10-13T07:42:38.757Z,21.60
2022-10-13T07:45:06.714Z,19.47
2022-10-13T07:47:34.043Z,21.13
2022-10-13T07:50:00.749Z,24.88
2022-10-13T07:52:27.538Z,22.55
2022-10-13T07:54:55.707Z,20.83
2022-10-13T07:57:25.615Z,20.42
2022-10-13T07:59:53.710Z,24.58
2022-10-13T08:02:21.296Z,21.33
2022-10-13T08:04:48.558Z,22.50
2022-10-13T08:07:15.277Z,21.65
2022-10-13T08:09:42.789Z,21.58
2022-10-13T08:12:09.569Z,18.27
2022-10-13T08:14:36.425Z,18.40
2022-10-13T08:17:05.179Z,18.92
2022-10-13T08:19:31.967Z,22.00
2022-10-13T08:21:59.909Z,21.83
2022-10-13T08:26:54.765Z,19.35
2022-10-13T08:29:23.761Z,20.42
2022-10-13T08:31:52.210Z,20.02
2022-10-13T08:34:21.159Z,22.30
2022-10-13T08:36:47.916Z,20.08
2022-10-13T08:39:15.227Z,22.45
2022-10-13T08:41:43.921Z,23.13
2022-10-13T08:47:13.050Z,20.75
2022-10-13T08:49:43.092Z,22.40
2022-10-13T08:52:14.013Z,24.63
2022-10-13T08:54:40.742Z,19.80
2022-10-13T08:57:09.335Z,23.83
2022-10-13T08:59:36.848Z,16.83
2022-10-13T09:02:11.886Z,17.58
2022-10-13T09:04:43.791Z,22.58
2022-10-13T09:07:14.770Z,17.25
2022-10-13T09:09:42.703Z,17.58
2022-10-13T09:12:11.517Z,22.85
2022-10-13T09:14:40.350Z,17.27
2022-10-13T09:17:18.076Z,19.00
2022-10-13T09:19:58.365Z,20.52
2022-10-13T09:22:28.163Z,18.65
2022-10-13T09:25:19.385Z,21.90
2022-10-13T09:27:49.925Z,18.63
2022-10-13T09:30:32.826Z,17.10
2022-10-13T09:33:15.447Z,19.27
2022-10-13T09:35:45.445Z,19.48
2022-10-13T09:38:15.864Z,16.58
2022-10-13T09:43:27.928Z,16.60
2022-10-13T09:45:55.117Z,16.55
2022-10-13T09:48:25.803Z,16.30
2022-10-13T09:50:55.906Z,19.20
2022-10-13T09:53:28.070Z,16.58
2022-10-13T09:56:09.935Z,16.73
2022-10-13T09:58:42.223Z,15.32
2022-10-13T10:01:16.682Z,20.25
2022-10-13T10:03:44.518Z,21.33
2022-10-13T10:06:16.057Z,18.35
2022-10-13T10:09:04.705Z,18.52
2022-10-13T10:11:38.541Z,15.20
2022-10-13T10:14:15.673Z,14.00
2022-10-13T10:16:47.196Z,16.27
2022-10-13T10:19:20.093Z,16.08
2022-10-13T10:21:54.244Z,16.70
2022-10-13T10:24:25.262Z,20.15
2022-10-13T10:26:55.794Z,17.67
2022-10-13T10:29:33.465Z,14.13
2022-10-13T10:32:15.490Z,17.95
2022-10-13T10:34:48.890Z,20.20
2022-10-13T10:37:28.376Z,15.00
2022-10-13T10:42:51.819Z,19.92
2022-10-13T10:45:24.994Z,13.88
2022-10-13T10:47:56.486Z,16.88
2022-10-13T10:50:23.945Z,18.48
2022-10-13T10:52:58.626Z,19.65
2022-10-13T10:55:32.224Z,18.52
2022-10-13T10:58:10.775Z,21.23
2022-10-13T11:00:45.808Z,23.80
2022-10-13T11:03:23.493Z,21.63
2022-10-13T11:06:02.738Z,20.70
2022-10-13T11:08:39.908Z,20.88
2022-10-13T11:11:44.022Z,25.88
2022-10-13T11:14:27.828Z,16.17
2022-10-13T11:17:10.679Z,22.58
2022-10-13T11:19:38.466Z,19.95
2022-10-13T11:22:25.117Z,18.60
2022-10-13T11:25:37.838Z,25.50
2022-10-13T11:28:38.806Z,21.73
2022-10-13T11:31:24.319Z,22.05
2022-10-13T11:33:55.479Z,21.35
2022-10-13T11:36:44.883Z,18.60
2022-10-13T11:39:37.352Z,27.05
2022-10-13T11:42:21.267Z,24.45
2022-10-13T11:44:54.881Z,17.23
2022-10-13T11:47:43.311Z,21.95
2022-10-13T11:50:20.358Z,25.67
2022-10-13T11:53:05.142Z,29.10
2022-10-13T11:55:42.603Z,24.63
2022-10-13T11:58:15.662Z,27.45
2022-10-13T12:00:54.648Z,20.92
2022-10-13T12:03:23.349Z,19.95
2022-10-13T12:05:51.274Z,24.58
2022-10-13T12:08:19.711Z,27.15
2022-10-13T12:10:51.547Z,27.25
2022-10-13T12:13:23.694Z,24.90
2022-10-13T12:15:57.811Z,26.65
2022-10-13T12:18:27.016Z,26.65
2022-10-13T12:20:54.773Z,25.15
2022-10-13T12:23:21.702Z,22.25
2022-10-13T12:25:51.003Z,22.75
2022-10-13T12:28:19.347Z,28.83
2022-10-13T12:30:53.618Z,28.30
2022-10-13T12:33:27.702Z,24.23
2022-10-13T12:35:54.675Z,25.20
2022-10-13T12:38:22.871Z,24.48
2022-10-13T12:40:51.349Z,22.88
2022-10-13T12:43:21.988Z,26.50
2022-10-13T12:45:49.315Z,23.65
2022-10-13T12:48:31.833Z,24.80
2022-10-13T12:51:16.382Z,21.65
2022-10-13T12:53:43.126Z,19.42
2022-10-13T12:56:22.362Z,21.63
2022-10-13T12:58:49.146Z,21.08
2022-10-13T13:01:27.566Z,20.20
2022-10-13T13:03:57.956Z,23.58
2022-10-13T13:06:30.903Z,22.60
2022-10-13T13:09:19.934Z,23.63
2022-10-13T13:11:47.877Z,27.23
2022-10-13T13:14:35.934Z,21.90
2022-10-13T13:17:11.746Z,21.73
2022-10-13T13:19:40.671Z,25.65
2022-10-13T13:22:08.782Z,23.77
2022-10-13T13:24:40.325Z,20.33
2022-10-13T13:27:17.351Z,21.33
2022-10-13T13:29:44.237Z,20.25
2022-10-13T13:32:12.883Z,22.38
2022-10-13T13:34:41.021Z,19.93
2022-10-13T13:37:14.030Z,21.13
2022-10-13T13:39:41.343Z,21.88
2022-10-13T13:42:13.672Z,25.23
2022-10-13T13:44:41.124Z,21.15
2022-10-13T13:47:16.538Z,20.85
2022-10-13T13:49:45.409Z,24.13
2022-10-13T13:52:12.219Z,22.75
2022-10-13T13:54:39.370Z,20.30
2022-10-13T13:57:06.744Z,19.73
2022-10-13T13:59:33.473Z,26.73
2022-10-13T14:02:00.308Z,25.70
2022-10-13T14:04:27.806Z,23.45
2022-10-13T14:06:55.976Z,22.92
2022-10-13T14:09:22.790Z,22.30
2022-10-13T14:11:50.194Z,25.98
2022-10-13T14:14:16.907Z,23.33
2022-10-13T14:16:43.608Z,22.80
2022-10-13T14:19:10.954Z,16.90
2022-10-13T14:21:37.683Z,20.08
2022-10-13T14:24:06.596Z,16.48
2022-10-13T14:26:33.952Z,18.50
2022-10-13T14:29:00.721Z,23.33
2022-10-13T14:31:27.513Z,20.02
2022-10-13T14:33:54.875Z,18.35
2022-10-13T14:36:21.751Z,20.30
2022-10-13T14:38:48.472Z,22.60
2022-10-13T14:41:18.113Z,19.17
2022-10-13T14:43:44.834Z,20.98
2022-10-13T14:46:12.520Z,22.05
2022-10-13T14:48:39.827Z,21.45
2022-10-13T14:51:07.198Z,22.90
2022-10-13T14:53:34.898Z,22.38
2022-10-13T14:56:02.740Z,19.63
2022-10-13T14:58:30.828Z,23.55
2022-10-13T15:00:57.534Z,21.77
2022-10-13T15:03:24.966Z,23.58
2022-10-13T15:05:51.686Z,21.38
2022-10-13T15:08:18.433Z,21.75
2022-10-13T15:10:45.754Z,22.92
2022-10-13T15:13:12.476Z,20.20
2022-10-13T15:15:47.208Z,19.48
2022-10-13T15:18:14.519Z,26.05
2022-10-13T15:20:45.490Z,22.58
2022-10-13T15:23:12.249Z,22.60
2022-10-13T15:25:39.631Z,19.58
2022-10-13T15:28:06.672Z,23.60
2022-10-13T15:30:33.545Z,25.70
2022-10-13T15:33:02.256Z,26.92
2022-10-13T15:35:29.759Z,30.98
2022-10-13T15:37:56.481Z,34.70
2022-10-13T15:40:23.947Z,32.28
2022-10-13T15:42:50.660Z,28.00
2022-10-13T15:45:17.489Z,26.40
2022-10-13T15:47:44.837Z,23.27
2022-10-13T15:50:13.058Z,22.55
2022-10-13T15:52:40.340Z,28.17
2022-10-13T15:55:08.478Z,20.70
2022-10-13T15:57:35.216Z,23.23
2022-10-13T16:00:02.067Z,22.00
2022-10-13T16:02:29.361Z,23.25
2022-10-13T16:04:56.087Z,25.70
2022-10-13T16:07:24.303Z,27.85
2022-10-13T16:09:51.619Z,25.75
2022-10-13T16:12:18.679Z,26.15
2022-10-13T16:14:46.248Z,21.13
2022-10-13T16:17:13.919Z,26.92
2022-10-13T16:19:40.624Z,24.73
2022-10-13T16:22:07.549Z,32.92
2022-10-13T16:24:36.713Z,31.02
2022-10-13T16:27:03.490Z,29.38
2022-10-13T16:29:30.286Z,33.05
2022-10-13T16:31:57.621Z,30.65
2022-10-13T16:34:24.599Z,22.17
2022-10-13T16:36:51.335Z,26.65
2022-10-13T16:39:18.774Z,28.30
2022-10-13T16:41:46.885Z,28.45
2022-10-13T16:44:13.834Z,34.97
2022-10-13T16:46:41.183Z,31.88
2022-10-13T16:49:07.964Z,26.42
2022-10-13T16:51:34.691Z,32.13
2022-10-13T16:54:04.491Z,31.50
2022-10-13T16:56:31.864Z,39.20
2022-10-13T16:59:01.011Z,43.92
2022-10-13T17:01:29.856Z,32.28
2022-10-13T17:03:57.231Z,30.25
2022-10-13T17:06:25.509Z,28.10
2022-10-13T17:08:52.838Z,27.63
2022-10-13T17:11:22.020Z,27.63
2022-10-13T17:13:49.195Z,27.83
2022-10-13T17:16:18.750Z,28.77
2022-10-13T17:21:14.292Z,30.45
2022-10-13T17:23:46.010Z,31.73
2022-10-13T17:26:17.088Z,23.40
2022-10-13T17:28:44.725Z,28.48
2022-10-13T17:31:13.562Z,23.65
2022-10-13T17:33:43.333Z,27.63
2022-10-13T17:36:13.590Z,31.15
2022-10-13T17:38:40.465Z,30.35
2022-10-13T17:41:08.719Z,30.33
2022-10-13T17:43:37.419Z,22.73
2022-10-13T17:46:34.498Z,33.97
2022-10-13T17:48:57.888Z,29.92
2022-10-13T17:51:24.853Z,28.10
2022-10-13T17:53:52.652Z,26.45
2022-10-13T17:56:21.958Z,26.95
2022-10-13T17:58:49.350Z,30.25
2022-10-13T18:01:18.080Z,34.70
2022-10-13T18:03:46.182Z,28.27
2022-10-13T18:06:15.016Z,25.75
2022-10-13T18:08:41.958Z,35.03
2022-10-13T18:11:11.459Z,33.55
2022-10-13T18:16:06.973Z,26.52
2022-10-13T18:18:34.623Z,31.23
2022-10-13T18:21:02.237Z,27.33
2022-10-13T18:23:31.770Z,28.77
2022-10-13T18:26:03.718Z,33.60
2022-10-13T18:28:30.646Z,31.10
2022-10-13T18:31:02.884Z,30.60
2022-10-13T18:33:30.384Z,28.08
2022-10-13T18:35:58.384Z,27.80
2022-10-13T18:38:25.778Z,25.20
2022-10-13T18:40:59.011Z,33.05
2022-10-13T18:43:25.716Z,33.58
2022-10-13T18:45:53.014Z,24.23
2022-10-13T18:48:19.708Z,30.52
2022-10-13T18:50:46.400Z,31.02
2022-10-13T18:53:13.713Z,27.52
2022-10-13T18:55:40.446Z,26.67
2022-10-13T18:58:08.546Z,24.98
2022-10-13T19:00:35.962Z,19.83
2022-10-13T19:03:02.946Z,20.67
2022-10-13T19:05:29.778Z,24.25
2022-10-13T19:07:57.203Z,23.08
2022-10-13T19:10:23.926Z,23.10
2022-10-13T19:12:50.610Z,25.80
2022-10-13T19:15:21.945Z,23.55
2022-10-13T19:17:48.666Z,24.27
2022-10-13T19:20:15.458Z,18.48
2022-10-13T19:22:42.800Z,27.63
2022-10-13T19:25:09.730Z,23.73
2022-10-13T19:27:36.436Z,27.10
2022-10-13T19:30:04.418Z,27.02
2022-10-13T19:32:32.574Z,19.75
2022-10-13T19:34:59.290Z,20.23
2022-10-13T19:37:26.593Z,24.70
2022-10-13T19:39:53.332Z,25.98
2022-10-13T19:42:20.062Z,22.30
2022-10-13T19:44:47.380Z,25.83
2022-10-13T19:47:14.131Z,21.83
2022-10-13T19:49:42.172Z,22.75
2022-10-13T19:52:09.483Z,24.13
2022-10-13T19:54:36.197Z,20.73
2022-10-13T19:57:03.168Z,25.27
2022-10-13T19:59:30.470Z,19.98
2022-10-13T20:01:57.202Z,19.67
2022-10-13T20:04:24.252Z,24.10
2022-10-13T20:06:52.917Z,20.20
2022-10-13T20:09:20.269Z,26.50
2022-10-13T20:11:49.785Z,30.75
2022-10-13T20:14:18.026Z,32.78
2022-10-13T20:16:45.298Z,36.92
2022-10-13T20:19:13.126Z,37.03
2022-10-13T20:21:40.601Z,40.55
2022-10-13T20:24:08.717Z,37.70
2022-10-13T20:26:35.411Z,37.17
2022-10-13T20:29:03.150Z,44.28
2022-10-13T20:31:29.968Z,44.92
2022-10-13T20:33:58.294Z,44.67
2022-10-13T20:38:53.071Z,43.40
2022-10-13T20:41:23.521Z,49.17
2022-10-13T20:43:52.547Z,49.63
2022-10-13T20:46:20.363Z,50.47
2022-10-13T20:51:35.715Z,49.42
2022-10-13T20:54:02.477Z,54.05
2022-10-13T20:56:30.544Z,49.80
2022-10-13T20:59:01.983Z,50.38
2022-10-13T21:01:28.808Z,54.67
2022-10-13T21:03:55.800Z,29.80
2022-10-13T21:06:24.691Z,45.22
2022-10-13T21:08:52.306Z,54.70
2022-10-13T21:11:20.575Z,54.60
2022-10-13T21:13:49.752Z,55.00
2022-10-13T21:16:18.491Z,47.45
2022-10-13T21:18:46.377Z,45.25
2022-10-13T21:21:15.023Z,49.65
2022-10-13T21:23:42.006Z,49.75
2022-10-13T21:26:09.505Z,52.60
2022-10-13T21:28:38.362Z,58.43
2022-10-13T21:31:08.116Z,69.80
2022-10-13T21:33:35.867Z,68.38
2022-10-13T21:36:06.181Z,125.78
2022-10-13T21:38:32.913Z,140.13
2022-10-13T21:40:59.618Z,135.48
2022-10-13T21:43:26.913Z,176.07
2022-10-13T21:45:53.698Z,120.75
2022-10-13T21:48:21.730Z,140.85
2022-10-13T21:50:49.055Z,106.05
2022-10-13T21:53:15.758Z,208.52
2022-10-13T21:55:42.455Z,34.88
2022-10-13T21:58:09.772Z,184.07
2022-10-13T22:00:36.491Z,120.28
2022-10-13T22:03:03.303Z,200.27
2022-10-13T22:05:31.954Z,317.15
2022-10-13T22:07:58.638Z,296.07
2022-10-13T22:10:25.362Z,177.98
2022-10-13T22:12:52.652Z,268.27
2022-10-13T22:15:19.371Z,283.00
2022-10-13T22:17:46.069Z,286.10
2022-10-13T22:20:13.367Z,252.10
2022-10-13T22:22:41.439Z,180.55
2022-10-13T22:25:08.945Z,223.93
2022-10-13T22:27:36.258Z,355.80
2022-10-13T22:30:03.179Z,203.55
2022-10-13T22:32:29.902Z,309.67
2022-10-13T22:34:57.186Z,307.23
2022-10-13T22:37:24.117Z,278.63
2022-10-13T22:39:52.260Z,266.35
2022-10-13T22:42:19.594Z,307.42
2022-10-13T22:44:46.293Z,355.77
2022-10-13T22:47:13.011Z,141.95
2022-10-13T22:49:40.313Z,265.65
2022-10-13T22:52:07.046Z,315.98
2022-10-13T22:54:33.814Z,195.55
2022-10-13T22:57:02.494Z,65.18
2022-10-13T22:59:29.224Z,225.47
2022-10-13T23:01:55.915Z,215.02
2022-10-13T23:04:23.215Z,147.02
2022-10-13T23:06:49.975Z,95.18
2022-10-13T23:09:16.706Z,265.92
2022-10-13T23:11:44.034Z,308.15
2022-10-13T23:14:12.113Z,372.42
2022-10-13T23:16:38.889Z,369.47
2022-10-13T23:19:06.211Z,229.35
2022-10-13T23:21:32.966Z,158.90
2022-10-13T23:24:01.354Z,273.65
2022-10-13T23:28:56.691Z,164.50
2022-10-13T23:31:25.961Z,106.43
2022-10-13T23:33:53.764Z,168.63
2022-10-13T23:36:22.295Z,166.15
2022-10-13T23:38:53.247Z,130.95
2022-10-13T23:41:20.563Z,149.88
2022-10-13T23:43:47.327Z,174.27
2022-10-13T23:46:14.058Z,240.02
2022-10-13T23:48:42.706Z,180.10
2022-10-13T23:51:11.757Z,229.40
2022-10-13T23:56:07.490Z,136.32
2022-10-13T23:58:36.375Z,133.17
